UAE43P YMML-OMDB
Flight info
| Callsign | UAE43P |
|---|---|
| Flight time | N/A |
| Altitude | 34000 |
| Route | PEDNI H345 AD A585 ABTOD DCT 30S130E 28S127E DCT DALPA DCT KA/N0497F360 DCT 16S110E 12S103E 09S097E/N0487F380 08S095E 06S091E DCT KADAP DCT PIBOR DCT BIBGO/N0479F400 L894 KITAL P570 ITURA M762 MIVEK P574 IMPED |
| Aircraft | A388/J-SADE2E3FGHIJ3J4J5M1RWXY/LB1D1 |
Departure
| Time | 2026-05-05 11:07 |
|---|---|
| Airport | Melbourne Airport (YMML) |
Arrival
| Time | N/A |
|---|---|
| Airport | Dubai International Airport (OMDB) |
| Time | Latitude | Longitude | Altitude | Speed | Heading |
|---|---|---|---|---|---|
| 2026-05-05 10:11 | -37.66740 | 144.84643 | 403 ft | 0 kts | 172° |
| 2026-05-05 10:49 | -37.66722 | 144.84639 | 400 ft | 4 kts | 161° |
| 2026-05-05 10:49 | -37.66699 | 144.84625 | 400 ft | 4 kts | 158° |
| 2026-05-05 10:49 | -37.66679 | 144.84623 | 398 ft | 4 kts | 199° |
| 2026-05-05 10:50 | -37.66657 | 144.84639 | 399 ft | 4 kts | 232° |
| 2026-05-05 10:50 | -37.66646 | 144.84669 | 395 ft | 4 kts | 262° |
| 2026-05-05 10:50 | -37.66645 | 144.84683 | 396 ft | 0 kts | 262° |
| 2026-05-05 10:59 | -37.66647 | 144.84664 | 405 ft | 5 kts | 262° |
| 2026-05-05 11:00 | -37.66653 | 144.84609 | 405 ft | 8 kts | 261° |
| 2026-05-05 11:00 | -37.66665 | 144.84518 | 404 ft | 13 kts | 261° |
| 2026-05-05 11:00 | -37.66680 | 144.84395 | 401 ft | 16 kts | 261° |
| 2026-05-05 11:00 | -37.66694 | 144.84269 | 399 ft | 9 kts | 262° |
| 2026-05-05 11:01 | -37.66710 | 144.84196 | 398 ft | 8 kts | 221° |
| 2026-05-05 11:01 | -37.66763 | 144.84187 | 397 ft | 11 kts | 171° |
| 2026-05-05 11:01 | -37.66866 | 144.84207 | 391 ft | 18 kts | 172° |
| 2026-05-05 11:01 | -37.67009 | 144.84233 | 391 ft | 23 kts | 172° |
| 2026-05-05 11:02 | -37.67172 | 144.84264 | 387 ft | 24 kts | 171° |
| 2026-05-05 11:02 | -37.67340 | 144.84296 | 384 ft | 25 kts | 171° |
| 2026-05-05 11:02 | -37.67517 | 144.84329 | 380 ft | 26 kts | 172° |
| 2026-05-05 11:02 | -37.67676 | 144.84358 | 376 ft | 27 kts | 172° |
| 2026-05-05 11:03 | -37.67868 | 144.84395 | 371 ft | 29 kts | 172° |
| 2026-05-05 11:03 | -37.68070 | 144.84431 | 368 ft | 30 kts | 172° |
| 2026-05-05 11:03 | -37.68164 | 144.84449 | 364 ft | 14 kts | 171° |
| 2026-05-05 11:03 | -37.68273 | 144.84470 | 363 ft | 18 kts | 171° |
| 2026-05-05 11:04 | -37.68362 | 144.84461 | 358 ft | 14 kts | 211° |
| 2026-05-05 11:04 | -37.68437 | 144.84395 | 359 ft | 7 kts | 214° |
| 2026-05-05 11:04 | -37.68489 | 144.84350 | 353 ft | 11 kts | 215° |
| 2026-05-05 11:04 | -37.68535 | 144.84294 | 356 ft | 7 kts | 237° |
| 2026-05-05 11:05 | -37.68544 | 144.84273 | 352 ft | 0 kts | 246° |
| 2026-05-05 11:05 | -37.68549 | 144.84257 | 354 ft | 4 kts | 253° |
| 2026-05-05 11:05 | -37.68558 | 144.84206 | 352 ft | 7 kts | 261° |
| 2026-05-05 11:06 | -37.68564 | 144.84143 | 353 ft | 7 kts | 265° |
| 2026-05-05 11:06 | -37.68561 | 144.84109 | 357 ft | 2 kts | 315° |
| 2026-05-05 11:06 | -37.68464 | 144.84075 | 356 ft | 44 kts | 353° |
| 2026-05-05 11:06 | -37.67910 | 144.83972 | 364 ft | 115 kts | 351° |
| 2026-05-05 11:07 | -37.66969 | 144.83795 | 390 ft | 161 kts | 351° |
| 2026-05-05 11:07 | -37.65825 | 144.83606 | 838 ft | 163 kts | 352° |
| 2026-05-05 11:07 | -37.64675 | 144.83395 | 1360 ft | 171 kts | 351° |
| 2026-05-05 11:07 | -37.63485 | 144.83167 | 1860 ft | 177 kts | 350° |
| 2026-05-05 11:08 | -37.62263 | 144.82922 | 2275 ft | 186 kts | 349° |
| 2026-05-05 11:08 | -37.61009 | 144.82675 | 2411 ft | 199 kts | 350° |
| 2026-05-05 11:08 | -37.59561 | 144.82401 | 2533 ft | 211 kts | 350° |
| 2026-05-05 11:08 | -37.58071 | 144.82120 | 2598 ft | 220 kts | 347° |
| 2026-05-05 11:09 | -37.56634 | 144.81305 | 2712 ft | 239 kts | 319° |
| 2026-05-05 11:09 | -37.55633 | 144.79598 | 2948 ft | 252 kts | 290° |
| 2026-05-05 11:09 | -37.55160 | 144.77442 | 3490 ft | 257 kts | 283° |
| 2026-05-05 11:09 | -37.54691 | 144.75271 | 4169 ft | 258 kts | 284° |
| 2026-05-05 11:10 | -37.54194 | 144.73066 | 4793 ft | 262 kts | 284° |
| 2026-05-05 11:10 | -37.53685 | 144.70847 | 5440 ft | 264 kts | 284° |
| 2026-05-05 11:10 | -37.53169 | 144.68608 | 6066 ft | 268 kts | 284° |
| 2026-05-05 11:10 | -37.52645 | 144.66336 | 6729 ft | 270 kts | 284° |
| 2026-05-05 11:11 | -37.52123 | 144.64073 | 7338 ft | 272 kts | 284° |
| 2026-05-05 11:11 | -37.51598 | 144.61800 | 7946 ft | 274 kts | 284° |